sensor_id;sensor_type;location;lat;lon;timestamp;P1;durP1;ratioP1;P2;durP2;ratioP2
16228;SDS011;8222;51.462;12.630;2022-12-07T00:01:20;10.38;;;8.57;;
16228;SDS011;8222;51.462;12.630;2022-12-07T00:03:47;11.48;;;8.80;;
16228;SDS011;8222;51.462;12.630;2022-12-07T00:06:15;11.88;;;8.80;;
16228;SDS011;8222;51.462;12.630;2022-12-07T00:08:44;10.05;;;7.72;;
16228;SDS011;8222;51.462;12.630;2022-12-07T00:11:11;11.05;;;8.63;;
16228;SDS011;8222;51.462;12.630;2022-12-07T00:13:39;10.07;;;8.10;;
16228;SDS011;8222;51.462;12.630;2022-12-07T00:16:09;9.25;;;7.22;;
16228;SDS011;8222;51.462;12.630;2022-12-07T00:18:43;9.65;;;7.47;;
16228;SDS011;8222;51.462;12.630;2022-12-07T00:21:24;9.45;;;7.80;;
16228;SDS011;8222;51.462;12.630;2022-12-07T00:23:51;10.00;;;7.07;;
16228;SDS011;8222;51.462;12.630;2022-12-07T00:26:20;8.70;;;6.88;;
16228;SDS011;8222;51.462;12.630;2022-12-07T00:28:49;9.27;;;7.57;;
16228;SDS011;8222;51.462;12.630;2022-12-07T00:31:20;10.18;;;7.85;;
16228;SDS011;8222;51.462;12.630;2022-12-07T00:33:46;8.25;;;6.78;;
16228;SDS011;8222;51.462;12.630;2022-12-07T00:36:15;8.63;;;7.18;;
16228;SDS011;8222;51.462;12.630;2022-12-07T00:38:43;8.85;;;7.25;;
16228;SDS011;8222;51.462;12.630;2022-12-07T00:41:14;9.53;;;7.43;;
16228;SDS011;8222;51.462;12.630;2022-12-07T00:43:47;10.43;;;8.03;;
16228;SDS011;8222;51.462;12.630;2022-12-07T00:46:14;8.80;;;6.80;;
16228;SDS011;8222;51.462;12.630;2022-12-07T00:48:41;6.80;;;5.53;;
16228;SDS011;8222;51.462;12.630;2022-12-07T00:51:07;7.73;;;6.70;;
16228;SDS011;8222;51.462;12.630;2022-12-07T00:53:34;9.70;;;8.18;;
16228;SDS011;8222;51.462;12.630;2022-12-07T00:56:06;7.47;;;6.60;;
16228;SDS011;8222;51.462;12.630;2022-12-07T00:58:34;10.18;;;8.27;;
16228;SDS011;8222;51.462;12.630;2022-12-07T01:01:01;9.85;;;7.63;;
16228;SDS011;8222;51.462;12.630;2022-12-07T01:03:28;9.90;;;7.60;;
16228;SDS011;8222;51.462;12.630;2022-12-07T01:05:55;8.85;;;6.72;;
16228;SDS011;8222;51.462;12.630;2022-12-07T01:08:21;9.57;;;7.65;;
16228;SDS011;8222;51.462;12.630;2022-12-07T01:10:48;9.60;;;7.53;;
16228;SDS011;8222;51.462;12.630;2022-12-07T01:13:14;10.15;;;8.75;;
16228;SDS011;8222;51.462;12.630;2022-12-07T01:15:41;7.20;;;6.00;;
16228;SDS011;8222;51.462;12.630;2022-12-07T01:18:07;11.32;;;7.82;;
16228;SDS011;8222;51.462;12.630;2022-12-07T01:20:34;10.13;;;8.63;;
16228;SDS011;8222;51.462;12.630;2022-12-07T01:23:00;11.90;;;7.70;;
16228;SDS011;8222;51.462;12.630;2022-12-07T01:25:28;10.70;;;8.27;;
16228;SDS011;8222;51.462;12.630;2022-12-07T01:27:54;11.30;;;8.40;;
16228;SDS011;8222;51.462;12.630;2022-12-07T01:30:19;10.75;;;7.95;;
16228;SDS011;8222;51.462;12.630;2022-12-07T01:32:47;9.87;;;8.40;;
16228;SDS011;8222;51.462;12.630;2022-12-07T01:35:13;13.87;;;8.90;;
16228;SDS011;8222;51.462;12.630;2022-12-07T01:37:38;11.50;;;9.20;;
16228;SDS011;8222;51.462;12.630;2022-12-07T01:40:07;12.87;;;8.77;;
16228;SDS011;8222;51.462;12.630;2022-12-07T01:42:34;13.15;;;9.25;;
16228;SDS011;8222;51.462;12.630;2022-12-07T01:47:48;11.77;;;9.07;;
16228;SDS011;8222;51.462;12.630;2022-12-07T01:50:18;11.40;;;8.70;;
16228;SDS011;8222;51.462;12.630;2022-12-07T01:52:46;10.23;;;7.60;;
16228;SDS011;8222;51.462;12.630;2022-12-07T01:55:15;10.07;;;8.43;;
16228;SDS011;8222;51.462;12.630;2022-12-07T01:57:45;11.10;;;8.93;;
16228;SDS011;8222;51.462;12.630;2022-12-07T02:00:17;11.70;;;9.05;;
16228;SDS011;8222;51.462;12.630;2022-12-07T02:05:12;12.40;;;9.73;;
16228;SDS011;8222;51.462;12.630;2022-12-07T02:07:41;10.70;;;9.60;;
16228;SDS011;8222;51.462;12.630;2022-12-07T02:10:17;11.93;;;8.80;;
16228;SDS011;8222;51.462;12.630;2022-12-07T02:12:45;12.45;;;9.07;;
16228;SDS011;8222;51.462;12.630;2022-12-07T02:15:18;8.90;;;7.67;;
16228;SDS011;8222;51.462;12.630;2022-12-07T02:20:39;13.33;;;9.47;;
16228;SDS011;8222;51.462;12.630;2022-12-07T02:23:40;12.30;;;9.70;;
16228;SDS011;8222;51.462;12.630;2022-12-07T02:31:18;9.97;;;7.97;;
16228;SDS011;8222;51.462;12.630;2022-12-07T02:33:50;12.43;;;9.60;;
16228;SDS011;8222;51.462;12.630;2022-12-07T02:36:26;12.02;;;9.55;;
16228;SDS011;8222;51.462;12.630;2022-12-07T02:39:01;10.38;;;9.23;;
16228;SDS011;8222;51.462;12.630;2022-12-07T02:41:58;12.90;;;9.73;;
16228;SDS011;8222;51.462;12.630;2022-12-07T02:44:29;11.80;;;9.98;;
16228;SDS011;8222;51.462;12.630;2022-12-07T02:47:03;12.10;;;9.30;;
16228;SDS011;8222;51.462;12.630;2022-12-07T02:49:36;13.20;;;10.15;;
16228;SDS011;8222;51.462;12.630;2022-12-07T02:52:05;12.03;;;8.07;;
16228;SDS011;8222;51.462;12.630;2022-12-07T02:54:31;12.15;;;9.20;;
16228;SDS011;8222;51.462;12.630;2022-12-07T02:57:00;13.43;;;9.57;;
16228;SDS011;8222;51.462;12.630;2022-12-07T03:00:04;13.02;;;9.27;;
16228;SDS011;8222;51.462;12.630;2022-12-07T03:02:45;12.27;;;9.60;;
16228;SDS011;8222;51.462;12.630;2022-12-07T03:11:04;13.80;;;9.80;;
16228;SDS011;8222;51.462;12.630;2022-12-07T03:16:25;12.63;;;9.27;;
16228;SDS011;8222;51.462;12.630;2022-12-07T03:18:55;11.87;;;9.60;;
16228;SDS011;8222;51.462;12.630;2022-12-07T03:21:35;11.63;;;9.75;;
16228;SDS011;8222;51.462;12.630;2022-12-07T03:24:12;11.20;;;8.30;;
16228;SDS011;8222;51.462;12.630;2022-12-07T03:26:47;12.63;;;9.32;;
16228;SDS011;8222;51.462;12.630;2022-12-07T03:29:19;10.60;;;7.60;;
16228;SDS011;8222;51.462;12.630;2022-12-07T03:32:05;13.13;;;9.77;;
16228;SDS011;8222;51.462;12.630;2022-12-07T03:34:53;9.77;;;7.77;;
16228;SDS011;8222;51.462;12.630;2022-12-07T03:42:37;11.57;;;9.52;;
16228;SDS011;8222;51.462;12.630;2022-12-07T03:45:04;13.15;;;10.07;;
16228;SDS011;8222;51.462;12.630;2022-12-07T03:47:32;13.23;;;10.48;;
16228;SDS011;8222;51.462;12.630;2022-12-07T03:52:41;11.35;;;9.25;;
16228;SDS011;8222;51.462;12.630;2022-12-07T03:55:20;11.63;;;9.23;;
16228;SDS011;8222;51.462;12.630;2022-12-07T03:57:52;11.35;;;9.25;;
16228;SDS011;8222;51.462;12.630;2022-12-07T04:00:25;11.98;;;9.25;;
16228;SDS011;8222;51.462;12.630;2022-12-07T04:02:51;9.35;;;8.32;;
16228;SDS011;8222;51.462;12.630;2022-12-07T04:05:17;9.70;;;8.63;;
16228;SDS011;8222;51.462;12.630;2022-12-07T04:07:46;10.25;;;8.35;;
16228;SDS011;8222;51.462;12.630;2022-12-07T04:10:12;11.93;;;8.23;;
16228;SDS011;8222;51.462;12.630;2022-12-07T04:12:40;10.67;;;8.43;;
16228;SDS011;8222;51.462;12.630;2022-12-07T04:15:13;11.98;;;8.80;;
16228;SDS011;8222;51.462;12.630;2022-12-07T04:17:42;10.10;;;8.40;;
16228;SDS011;8222;51.462;12.630;2022-12-07T04:20:08;10.52;;;7.03;;
16228;SDS011;8222;51.462;12.630;2022-12-07T04:22:34;9.98;;;7.85;;
16228;SDS011;8222;51.462;12.630;2022-12-07T04:25:00;10.83;;;7.57;;
16228;SDS011;8222;51.462;12.630;2022-12-07T04:27:25;13.93;;;8.80;;
16228;SDS011;8222;51.462;12.630;2022-12-07T04:29:51;9.32;;;7.30;;
16228;SDS011;8222;51.462;12.630;2022-12-07T04:32:20;8.82;;;6.55;;
16228;SDS011;8222;51.462;12.630;2022-12-07T04:34:46;10.27;;;6.90;;
16228;SDS011;8222;51.462;12.630;2022-12-07T04:37:12;7.83;;;6.97;;
16228;SDS011;8222;51.462;12.630;2022-12-07T04:39:37;8.20;;;7.10;;
16228;SDS011;8222;51.462;12.630;2022-12-07T04:42:03;9.67;;;7.40;;
16228;SDS011;8222;51.462;12.630;2022-12-07T04:44:29;9.73;;;7.60;;
16228;SDS011;8222;51.462;12.630;2022-12-07T04:46:55;10.30;;;7.55;;
16228;SDS011;8222;51.462;12.630;2022-12-07T04:49:22;10.27;;;7.78;;
16228;SDS011;8222;51.462;12.630;2022-12-07T04:51:50;8.00;;;5.93;;
16228;SDS011;8222;51.462;12.630;2022-12-07T04:54:16;10.32;;;8.05;;
16228;SDS011;8222;51.462;12.630;2022-12-07T04:56:45;10.20;;;7.78;;
16228;SDS011;8222;51.462;12.630;2022-12-07T04:59:11;17.80;;;13.50;;
16228;SDS011;8222;51.462;12.630;2022-12-07T05:01:38;9.18;;;7.88;;
16228;SDS011;8222;51.462;12.630;2022-12-07T05:04:03;10.38;;;7.20;;
16228;SDS011;8222;51.462;12.630;2022-12-07T05:06:29;10.85;;;7.82;;
16228;SDS011;8222;51.462;12.630;2022-12-07T05:08:55;8.20;;;6.87;;
16228;SDS011;8222;51.462;12.630;2022-12-07T05:11:21;9.43;;;7.95;;
16228;SDS011;8222;51.462;12.630;2022-12-07T05:14:08;10.35;;;7.88;;
16228;SDS011;8222;51.462;12.630;2022-12-07T05:16:36;9.93;;;8.20;;
16228;SDS011;8222;51.462;12.630;2022-12-07T05:19:02;9.73;;;8.57;;
16228;SDS011;8222;51.462;12.630;2022-12-07T05:21:29;10.57;;;8.23;;
16228;SDS011;8222;51.462;12.630;2022-12-07T05:23:54;12.17;;;9.83;;
16228;SDS011;8222;51.462;12.630;2022-12-07T05:26:20;13.23;;;8.90;;
16228;SDS011;8222;51.462;12.630;2022-12-07T05:28:49;12.27;;;9.53;;
16228;SDS011;8222;51.462;12.630;2022-12-07T05:31:16;7.83;;;5.90;;
16228;SDS011;8222;51.462;12.630;2022-12-07T05:33:41;10.57;;;8.30;;
16228;SDS011;8222;51.462;12.630;2022-12-07T05:36:07;9.82;;;8.75;;
16228;SDS011;8222;51.462;12.630;2022-12-07T05:38:33;8.75;;;7.85;;
16228;SDS011;8222;51.462;12.630;2022-12-07T05:41:01;9.68;;;7.88;;
16228;SDS011;8222;51.462;12.630;2022-12-07T05:43:28;11.93;;;8.60;;
16228;SDS011;8222;51.462;12.630;2022-12-07T05:45:54;9.32;;;8.23;;
16228;SDS011;8222;51.462;12.630;2022-12-07T05:48:20;17.90;;;13.35;;
16228;SDS011;8222;51.462;12.630;2022-12-07T05:50:49;9.40;;;7.70;;
16228;SDS011;8222;51.462;12.630;2022-12-07T05:53:15;11.00;;;8.35;;
16228;SDS011;8222;51.462;12.630;2022-12-07T05:55:43;11.70;;;9.10;;
16228;SDS011;8222;51.462;12.630;2022-12-07T05:58:09;8.90;;;7.90;;
16228;SDS011;8222;51.462;12.630;2022-12-07T06:00:57;9.43;;;7.70;;
16228;SDS011;8222;51.462;12.630;2022-12-07T06:03:27;9.23;;;8.07;;
16228;SDS011;8222;51.462;12.630;2022-12-07T06:05:53;10.40;;;8.60;;
16228;SDS011;8222;51.462;12.630;2022-12-07T06:08:18;8.18;;;7.35;;
16228;SDS011;8222;51.462;12.630;2022-12-07T06:10:44;10.13;;;8.30;;
16228;SDS011;8222;51.462;12.630;2022-12-07T06:13:32;10.82;;;8.55;;
16228;SDS011;8222;51.462;12.630;2022-12-07T06:15:59;9.35;;;7.57;;
16228;SDS011;8222;51.462;12.630;2022-12-07T06:18:25;9.10;;;7.60;;
16228;SDS011;8222;51.462;12.630;2022-12-07T06:20:50;7.00;;;5.77;;
16228;SDS011;8222;51.462;12.630;2022-12-07T06:23:16;9.23;;;7.53;;
16228;SDS011;8222;51.462;12.630;2022-12-07T06:25:44;8.97;;;7.93;;
16228;SDS011;8222;51.462;12.630;2022-12-07T06:28:10;9.43;;;8.02;;
16228;SDS011;8222;51.462;12.630;2022-12-07T06:30:36;8.70;;;7.60;;
16228;SDS011;8222;51.462;12.630;2022-12-07T06:33:02;8.47;;;7.10;;
16228;SDS011;8222;51.462;12.630;2022-12-07T06:35:27;9.60;;;8.23;;
16228;SDS011;8222;51.462;12.630;2022-12-07T06:37:57;9.23;;;7.95;;
16228;SDS011;8222;51.462;12.630;2022-12-07T06:40:22;18.65;;;15.52;;
16228;SDS011;8222;51.462;12.630;2022-12-07T06:42:48;11.20;;;9.67;;
16228;SDS011;8222;51.462;12.630;2022-12-07T06:45:14;10.23;;;8.38;;
16228;SDS011;8222;51.462;12.630;2022-12-07T06:47:39;9.95;;;8.73;;
16228;SDS011;8222;51.462;12.630;2022-12-07T06:50:05;8.80;;;7.27;;
16228;SDS011;8222;51.462;12.630;2022-12-07T06:52:33;8.85;;;7.65;;
16228;SDS011;8222;51.462;12.630;2022-12-07T06:54:58;11.35;;;9.63;;
16228;SDS011;8222;51.462;12.630;2022-12-07T06:57:24;10.02;;;8.95;;
16228;SDS011;8222;51.462;12.630;2022-12-07T06:59:50;10.27;;;8.70;;
16228;SDS011;8222;51.462;12.630;2022-12-07T07:02:16;12.63;;;8.77;;
16228;SDS011;8222;51.462;12.630;2022-12-07T07:04:42;11.85;;;9.07;;
16228;SDS011;8222;51.462;12.630;2022-12-07T07:07:08;9.50;;;8.27;;
16228;SDS011;8222;51.462;12.630;2022-12-07T07:09:34;9.40;;;8.30;;
16228;SDS011;8222;51.462;12.630;2022-12-07T07:12:02;8.07;;;6.63;;
16228;SDS011;8222;51.462;12.630;2022-12-07T07:14:27;9.25;;;7.63;;
16228;SDS011;8222;51.462;12.630;2022-12-07T07:16:53;9.13;;;8.23;;
16228;SDS011;8222;51.462;12.630;2022-12-07T07:19:22;9.82;;;8.40;;
16228;SDS011;8222;51.462;12.630;2022-12-07T07:21:47;9.20;;;7.40;;
16228;SDS011;8222;51.462;12.630;2022-12-07T07:24:17;10.45;;;8.10;;
16228;SDS011;8222;51.462;12.630;2022-12-07T07:26:43;9.70;;;8.70;;
16228;SDS011;8222;51.462;12.630;2022-12-07T07:29:12;9.32;;;7.78;;
16228;SDS011;8222;51.462;12.630;2022-12-07T07:31:38;9.93;;;8.45;;
16228;SDS011;8222;51.462;12.630;2022-12-07T07:34:04;9.60;;;8.30;;
16228;SDS011;8222;51.462;12.630;2022-12-07T07:36:30;9.30;;;8.37;;
16228;SDS011;8222;51.462;12.630;2022-12-07T07:38:55;10.00;;;8.68;;
16228;SDS011;8222;51.462;12.630;2022-12-07T07:41:21;9.23;;;7.80;;
16228;SDS011;8222;51.462;12.630;2022-12-07T07:43:46;9.80;;;8.37;;
16228;SDS011;8222;51.462;12.630;2022-12-07T07:46:12;9.13;;;8.13;;
16228;SDS011;8222;51.462;12.630;2022-12-07T07:48:38;10.75;;;9.18;;
16228;SDS011;8222;51.462;12.630;2022-12-07T07:51:07;11.45;;;9.50;;
16228;SDS011;8222;51.462;12.630;2022-12-07T07:53:33;9.95;;;8.77;;
16228;SDS011;8222;51.462;12.630;2022-12-07T07:55:59;10.27;;;9.23;;
16228;SDS011;8222;51.462;12.630;2022-12-07T07:58:26;12.20;;;9.40;;
16228;SDS011;8222;51.462;12.630;2022-12-07T08:00:54;10.52;;;9.43;;
16228;SDS011;8222;51.462;12.630;2022-12-07T08:03:20;9.98;;;8.98;;
16228;SDS011;8222;51.462;12.630;2022-12-07T08:05:45;9.80;;;8.40;;
16228;SDS011;8222;51.462;12.630;2022-12-07T08:08:14;9.00;;;8.10;;
16228;SDS011;8222;51.462;12.630;2022-12-07T08:10:40;10.70;;;8.73;;
16228;SDS011;8222;51.462;12.630;2022-12-07T08:13:05;11.00;;;9.07;;
16228;SDS011;8222;51.462;12.630;2022-12-07T08:15:36;10.60;;;9.50;;
16228;SDS011;8222;51.462;12.630;2022-12-07T08:18:03;10.43;;;8.77;;
16228;SDS011;8222;51.462;12.630;2022-12-07T08:20:30;7.87;;;7.07;;
16228;SDS011;8222;51.462;12.630;2022-12-07T08:22:57;8.10;;;7.30;;
16228;SDS011;8222;51.462;12.630;2022-12-07T08:25:22;9.48;;;7.50;;
16228;SDS011;8222;51.462;12.630;2022-12-07T08:27:48;8.77;;;7.40;;
16228;SDS011;8222;51.462;12.630;2022-12-07T08:30:14;8.27;;;7.28;;
16228;SDS011;8222;51.462;12.630;2022-12-07T08:32:44;8.25;;;7.45;;
16228;SDS011;8222;51.462;12.630;2022-12-07T08:35:10;8.07;;;7.28;;
16228;SDS011;8222;51.462;12.630;2022-12-07T08:37:38;8.85;;;7.65;;
16228;SDS011;8222;51.462;12.630;2022-12-07T08:40:05;9.35;;;7.65;;
16228;SDS011;8222;51.462;12.630;2022-12-07T08:42:32;9.80;;;8.40;;
16228;SDS011;8222;51.462;12.630;2022-12-07T08:45:10;8.93;;;7.20;;
16228;SDS011;8222;51.462;12.630;2022-12-07T08:47:43;9.03;;;8.13;;
16228;SDS011;8222;51.462;12.630;2022-12-07T08:50:13;9.70;;;8.70;;
16228;SDS011;8222;51.462;12.630;2022-12-07T08:52:40;10.10;;;8.57;;
16228;SDS011;8222;51.462;12.630;2022-12-07T08:55:08;10.00;;;7.95;;
16228;SDS011;8222;51.462;12.630;2022-12-07T08:57:35;10.50;;;8.98;;
16228;SDS011;8222;51.462;12.630;2022-12-07T09:00:03;9.43;;;8.07;;
16228;SDS011;8222;51.462;12.630;2022-12-07T09:02:30;9.43;;;8.43;;
16228;SDS011;8222;51.462;12.630;2022-12-07T09:04:58;12.27;;;9.13;;
16228;SDS011;8222;51.462;12.630;2022-12-07T09:07:23;10.15;;;8.93;;
16228;SDS011;8222;51.462;12.630;2022-12-07T09:09:50;10.32;;;7.82;;
16228;SDS011;8222;51.462;12.630;2022-12-07T09:12:15;8.07;;;7.28;;
16228;SDS011;8222;51.462;12.630;2022-12-07T09:14:41;10.38;;;8.05;;
16228;SDS011;8222;51.462;12.630;2022-12-07T09:17:13;9.13;;;8.17;;
16228;SDS011;8222;51.462;12.630;2022-12-07T09:19:42;9.30;;;7.77;;
16228;SDS011;8222;51.462;12.630;2022-12-07T09:22:08;8.37;;;7.27;;
16228;SDS011;8222;51.462;12.630;2022-12-07T09:24:34;10.52;;;7.85;;
16228;SDS011;8222;51.462;12.630;2022-12-07T09:27:00;8.40;;;7.45;;
16228;SDS011;8222;51.462;12.630;2022-12-07T09:29:27;10.68;;;7.53;;
16228;SDS011;8222;51.462;12.630;2022-12-07T09:31:53;10.20;;;7.60;;
16228;SDS011;8222;51.462;12.630;2022-12-07T09:34:22;6.90;;;5.57;;
16228;SDS011;8222;51.462;12.630;2022-12-07T09:36:51;7.45;;;5.55;;
16228;SDS011;8222;51.462;12.630;2022-12-07T09:39:17;7.93;;;6.50;;
16228;SDS011;8222;51.462;12.630;2022-12-07T09:41:44;7.72;;;5.88;;
16228;SDS011;8222;51.462;12.630;2022-12-07T09:44:20;6.22;;;4.90;;
16228;SDS011;8222;51.462;12.630;2022-12-07T09:46:49;6.70;;;4.30;;
16228;SDS011;8222;51.462;12.630;2022-12-07T09:49:19;6.53;;;5.00;;
16228;SDS011;8222;51.462;12.630;2022-12-07T09:51:46;7.15;;;6.43;;
16228;SDS011;8222;51.462;12.630;2022-12-07T09:54:13;7.57;;;6.07;;
16228;SDS011;8222;51.462;12.630;2022-12-07T09:56:41;7.93;;;7.13;;
16228;SDS011;8222;51.462;12.630;2022-12-07T09:59:09;10.05;;;7.88;;
16228;SDS011;8222;51.462;12.630;2022-12-07T10:01:41;10.68;;;9.05;;
16228;SDS011;8222;51.462;12.630;2022-12-07T10:04:18;10.52;;;8.05;;
16228;SDS011;8222;51.462;12.630;2022-12-07T10:06:49;10.13;;;8.07;;
16228;SDS011;8222;51.462;12.630;2022-12-07T10:09:17;10.65;;;7.72;;
16228;SDS011;8222;51.462;12.630;2022-12-07T10:14:31;8.60;;;6.78;;
16228;SDS011;8222;51.462;12.630;2022-12-07T10:17:00;9.70;;;6.50;;
16228;SDS011;8222;51.462;12.630;2022-12-07T10:19:47;8.88;;;6.40;;
16228;SDS011;8222;51.462;12.630;2022-12-07T10:22:14;8.33;;;6.17;;
16228;SDS011;8222;51.462;12.630;2022-12-07T10:24:45;8.60;;;6.38;;
16228;SDS011;8222;51.462;12.630;2022-12-07T10:27:21;9.00;;;6.63;;
16228;SDS011;8222;51.462;12.630;2022-12-07T10:29:51;8.98;;;6.88;;
16228;SDS011;8222;51.462;12.630;2022-12-07T10:34:44;10.70;;;7.70;;
16228;SDS011;8222;51.462;12.630;2022-12-07T10:45:09;8.48;;;7.13;;
16228;SDS011;8222;51.462;12.630;2022-12-07T11:15:29;6.95;;;5.30;;
16228;SDS011;8222;51.462;12.630;2022-12-07T11:18:39;7.75;;;6.07;;
16228;SDS011;8222;51.462;12.630;2022-12-07T11:23:51;6.75;;;4.93;;
16228;SDS011;8222;51.462;12.630;2022-12-07T11:26:39;7.07;;;5.25;;
16228;SDS011;8222;51.462;12.630;2022-12-07T11:29:29;7.30;;;5.78;;
16228;SDS011;8222;51.462;12.630;2022-12-07T11:37:32;9.67;;;4.90;;
16228;SDS011;8222;51.462;12.630;2022-12-07T11:46:02;8.07;;;5.13;;
16228;SDS011;8222;51.462;12.630;2022-12-07T11:48:35;5.40;;;4.85;;
16228;SDS011;8222;51.462;12.630;2022-12-07T11:51:11;4.07;;;3.67;;
16228;SDS011;8222;51.462;12.630;2022-12-07T11:53:54;5.63;;;3.80;;
16228;SDS011;8222;51.462;12.630;2022-12-07T11:56:26;5.45;;;3.83;;
16228;SDS011;8222;51.462;12.630;2022-12-07T12:02:14;5.75;;;4.05;;
16228;SDS011;8222;51.462;12.630;2022-12-07T12:05:05;4.53;;;4.13;;
16228;SDS011;8222;51.462;12.630;2022-12-07T12:07:39;4.25;;;3.85;;
16228;SDS011;8222;51.462;12.630;2022-12-07T12:10:14;4.43;;;3.72;;
16228;SDS011;8222;51.462;12.630;2022-12-07T12:20:57;3.88;;;3.08;;
16228;SDS011;8222;51.462;12.630;2022-12-07T12:26:07;2.90;;;2.58;;
16228;SDS011;8222;51.462;12.630;2022-12-07T12:28:54;3.05;;;2.75;;
16228;SDS011;8222;51.462;12.630;2022-12-07T12:33:53;4.27;;;2.63;;
16228;SDS011;8222;51.462;12.630;2022-12-07T12:50:37;5.57;;;3.33;;
16228;SDS011;8222;51.462;12.630;2022-12-07T12:53:12;4.45;;;2.67;;
16228;SDS011;8222;51.462;12.630;2022-12-07T13:00:49;3.33;;;2.60;;
16228;SDS011;8222;51.462;12.630;2022-12-07T13:03:53;4.00;;;2.42;;
16228;SDS011;8222;51.462;12.630;2022-12-07T13:06:31;3.70;;;2.22;;
16228;SDS011;8222;51.462;12.630;2022-12-07T13:09:00;3.70;;;2.33;;
16228;SDS011;8222;51.462;12.630;2022-12-07T13:11:31;2.75;;;2.22;;
16228;SDS011;8222;51.462;12.630;2022-12-07T13:17:00;5.03;;;3.20;;
16228;SDS011;8222;51.462;12.630;2022-12-07T13:19:46;3.30;;;2.92;;
16228;SDS011;8222;51.462;12.630;2022-12-07T13:25:03;3.43;;;3.13;;
16228;SDS011;8222;51.462;12.630;2022-12-07T13:27:43;3.10;;;2.60;;
16228;SDS011;8222;51.462;12.630;2022-12-07T13:30:21;2.60;;;2.30;;
16228;SDS011;8222;51.462;12.630;2022-12-07T13:32:54;3.42;;;2.63;;
16228;SDS011;8222;51.462;12.630;2022-12-07T13:35:31;3.13;;;2.33;;
16228;SDS011;8222;51.462;12.630;2022-12-07T13:38:04;2.40;;;2.20;;
16228;SDS011;8222;51.462;12.630;2022-12-07T13:40:58;3.70;;;2.88;;
16228;SDS011;8222;51.462;12.630;2022-12-07T13:43:25;1.80;;;1.42;;
16228;SDS011;8222;51.462;12.630;2022-12-07T13:45:56;2.13;;;1.35;;
16228;SDS011;8222;51.462;12.630;2022-12-07T13:48:36;2.10;;;1.13;;
16228;SDS011;8222;51.462;12.630;2022-12-07T13:51:14;3.65;;;3.40;;
16228;SDS011;8222;51.462;12.630;2022-12-07T13:53:50;2.40;;;2.10;;
16228;SDS011;8222;51.462;12.630;2022-12-07T13:56:20;1.65;;;1.52;;
16228;SDS011;8222;51.462;12.630;2022-12-07T13:58:49;1.77;;;1.67;;
16228;SDS011;8222;51.462;12.630;2022-12-07T14:01:15;5.83;;;5.20;;
16228;SDS011;8222;51.462;12.630;2022-12-07T14:03:44;2.17;;;2.05;;
16228;SDS011;8222;51.462;12.630;2022-12-07T14:06:15;4.80;;;3.60;;
16228;SDS011;8222;51.462;12.630;2022-12-07T14:09:08;2.30;;;2.10;;
16228;SDS011;8222;51.462;12.630;2022-12-07T14:11:55;2.40;;;1.73;;
16228;SDS011;8222;51.462;12.630;2022-12-07T14:14:22;2.95;;;2.13;;
16228;SDS011;8222;51.462;12.630;2022-12-07T14:17:00;2.90;;;1.60;;
16228;SDS011;8222;51.462;12.630;2022-12-07T14:25:19;2.85;;;2.55;;
16228;SDS011;8222;51.462;12.630;2022-12-07T14:27:48;2.67;;;2.30;;
16228;SDS011;8222;51.462;12.630;2022-12-07T14:30:18;2.88;;;2.58;;
16228;SDS011;8222;51.462;12.630;2022-12-07T14:32:44;2.90;;;2.20;;
16228;SDS011;8222;51.462;12.630;2022-12-07T14:35:14;3.13;;;2.35;;
16228;SDS011;8222;51.462;12.630;2022-12-07T14:37:42;3.08;;;2.30;;
16228;SDS011;8222;51.462;12.630;2022-12-07T14:40:16;3.10;;;2.07;;
16228;SDS011;8222;51.462;12.630;2022-12-07T14:42:44;2.50;;;2.30;;
16228;SDS011;8222;51.462;12.630;2022-12-07T14:45:19;3.20;;;2.80;;
16228;SDS011;8222;51.462;12.630;2022-12-07T14:47:46;3.92;;;3.10;;
16228;SDS011;8222;51.462;12.630;2022-12-07T14:50:18;4.47;;;2.70;;
16228;SDS011;8222;51.462;12.630;2022-12-07T14:52:46;4.25;;;3.00;;
16228;SDS011;8222;51.462;12.630;2022-12-07T14:55:26;3.72;;;2.95;;
16228;SDS011;8222;51.462;12.630;2022-12-07T14:57:54;2.40;;;2.10;;
16228;SDS011;8222;51.462;12.630;2022-12-07T15:00:24;2.17;;;1.73;;
16228;SDS011;8222;51.462;12.630;2022-12-07T15:02:51;2.80;;;2.63;;
16228;SDS011;8222;51.462;12.630;2022-12-07T15:05:17;1.90;;;1.40;;
16228;SDS011;8222;51.462;12.630;2022-12-07T15:07:43;2.30;;;2.10;;
16228;SDS011;8222;51.462;12.630;2022-12-07T15:10:23;3.58;;;2.17;;
16228;SDS011;8222;51.462;12.630;2022-12-07T15:12:57;6.32;;;3.80;;
16228;SDS011;8222;51.462;12.630;2022-12-07T15:15:44;2.67;;;1.70;;
16228;SDS011;8222;51.462;12.630;2022-12-07T15:18:12;2.53;;;2.10;;
16228;SDS011;8222;51.462;12.630;2022-12-07T15:20:38;2.67;;;2.33;;
16228;SDS011;8222;51.462;12.630;2022-12-07T15:23:06;3.70;;;2.47;;
16228;SDS011;8222;51.462;12.630;2022-12-07T15:25:32;6.10;;;2.97;;
16228;SDS011;8222;51.462;12.630;2022-12-07T15:28:01;3.05;;;2.70;;
16228;SDS011;8222;51.462;12.630;2022-12-07T15:30:29;6.03;;;3.17;;
16228;SDS011;8222;51.462;12.630;2022-12-07T15:32:54;3.75;;;3.08;;
16228;SDS011;8222;51.462;12.630;2022-12-07T15:35:22;2.60;;;2.23;;
16228;SDS011;8222;51.462;12.630;2022-12-07T15:37:50;5.28;;;2.70;;
16228;SDS011;8222;51.462;12.630;2022-12-07T15:40:16;5.88;;;3.30;;
16228;SDS011;8222;51.462;12.630;2022-12-07T15:42:41;2.10;;;1.90;;
16228;SDS011;8222;51.462;12.630;2022-12-07T15:45:09;7.32;;;3.17;;
16228;SDS011;8222;51.462;12.630;2022-12-07T15:47:36;4.18;;;3.40;;
16228;SDS011;8222;51.462;12.630;2022-12-07T15:50:05;4.00;;;3.17;;
16228;SDS011;8222;51.462;12.630;2022-12-07T15:52:32;4.80;;;3.08;;
16228;SDS011;8222;51.462;12.630;2022-12-07T15:54:58;4.40;;;3.00;;
16228;SDS011;8222;51.462;12.630;2022-12-07T15:57:28;5.18;;;3.00;;
16228;SDS011;8222;51.462;12.630;2022-12-07T15:59:54;3.27;;;2.27;;
16228;SDS011;8222;51.462;12.630;2022-12-07T16:02:23;3.30;;;3.00;;
16228;SDS011;8222;51.462;12.630;2022-12-07T16:04:49;3.47;;;2.88;;
16228;SDS011;8222;51.462;12.630;2022-12-07T16:07:15;5.22;;;2.70;;
16228;SDS011;8222;51.462;12.630;2022-12-07T16:09:42;3.35;;;2.30;;
16228;SDS011;8222;51.462;12.630;2022-12-07T16:12:08;4.55;;;2.75;;
16228;SDS011;8222;51.462;12.630;2022-12-07T16:14:34;2.90;;;2.63;;
16228;SDS011;8222;51.462;12.630;2022-12-07T16:17:01;5.05;;;3.03;;
16228;SDS011;8222;51.462;12.630;2022-12-07T16:19:29;6.82;;;3.38;;
16228;SDS011;8222;51.462;12.630;2022-12-07T16:21:55;6.88;;;3.40;;
16228;SDS011;8222;51.462;12.630;2022-12-07T16:24:25;4.57;;;3.03;;
16228;SDS011;8222;51.462;12.630;2022-12-07T16:26:54;2.60;;;2.40;;
16228;SDS011;8222;51.462;12.630;2022-12-07T16:29:20;2.93;;;2.53;;
16228;SDS011;8222;51.462;12.630;2022-12-07T16:31:47;2.40;;;2.20;;
16228;SDS011;8222;51.462;12.630;2022-12-07T16:34:15;3.77;;;2.23;;
16228;SDS011;8222;51.462;12.630;2022-12-07T16:36:41;3.23;;;2.37;;
16228;SDS011;8222;51.462;12.630;2022-12-07T16:39:08;3.40;;;2.33;;
16228;SDS011;8222;51.462;12.630;2022-12-07T16:41:38;4.93;;;2.00;;
16228;SDS011;8222;51.462;12.630;2022-12-07T16:44:05;3.80;;;1.90;;
16228;SDS011;8222;51.462;12.630;2022-12-07T16:46:34;2.70;;;1.95;;
16228;SDS011;8222;51.462;12.630;2022-12-07T16:49:01;2.35;;;1.70;;
16228;SDS011;8222;51.462;12.630;2022-12-07T16:51:27;1.33;;;1.23;;
16228;SDS011;8222;51.462;12.630;2022-12-07T16:53:58;2.60;;;1.63;;
16228;SDS011;8222;51.462;12.630;2022-12-07T16:56:24;1.70;;;1.55;;
16228;SDS011;8222;51.462;12.630;2022-12-07T16:58:54;2.10;;;1.50;;
16228;SDS011;8222;51.462;12.630;2022-12-07T17:01:22;1.92;;;1.40;;
16228;SDS011;8222;51.462;12.630;2022-12-07T17:03:48;2.20;;;1.77;;
16228;SDS011;8222;51.462;12.630;2022-12-07T17:06:24;2.70;;;1.48;;
16228;SDS011;8222;51.462;12.630;2022-12-07T17:08:51;3.05;;;1.70;;
16228;SDS011;8222;51.462;12.630;2022-12-07T17:13:44;2.90;;;2.17;;